Time;durP1;ratioP1;P1;durP2;ratioP2;P2;SDS_P1;SDS_P2;PMS_P1;PMS_P2;Temp;Humidity;BMP_temperature;BMP_pressure;BME280_temperature;BME280_humidity;BME280_pressure;Samples;Min_cycle;Max_cycle;Signal;HPM_P1;HPM_P2
2023/04/10 00:01:48;;;;;;;11.02;9.48;;;;;;;11.96;51.59;102012.53;5072698;28;20056;-65
2023/04/10 00:04:14;;;;;;;11.10;9.30;;;;;;;11.92;51.54;102002.13;5071774;28;20047;-65
2023/04/10 00:06:40;;;;;;;11.23;9.43;;;;;;;11.97;51.42;101996.69;5083030;28;20032;-65
2023/04/10 00:09:06;;;;;;;10.77;9.68;;;;;;;11.92;51.61;101996.56;5080326;28;20043;-65
2023/04/10 00:11:32;;;;;;;12.02;9.38;;;;;;;11.92;51.30;101983.50;5087747;28;20032;-65
2023/04/10 00:13:57;;;;;;;10.93;8.68;;;;;;;11.94;51.02;101983.25;5091218;28;20030;-65
2023/04/10 00:16:22;;;;;;;11.52;9.85;;;;;;;11.85;51.47;101977.16;5080626;28;20124;-65
2023/04/10 00:18:48;;;;;;;12.88;9.85;;;;;;;11.86;51.36;101978.00;5069886;28;20036;-65
2023/04/10 00:21:13;;;;;;;10.48;8.90;;;;;;;11.89;51.19;101971.97;5071615;28;20383;-65
2023/04/10 00:23:38;;;;;;;11.38;9.02;;;;;;;11.83;50.83;101973.78;5069885;28;20138;-65
2023/04/10 00:26:04;;;;;;;11.70;9.13;;;;;;;11.82;50.77;101962.84;5071099;28;20112;-64
2023/04/10 00:28:29;;;;;;;10.32;9.23;;;;;;;11.85;50.83;101962.41;5075006;28;20040;-64
2023/04/10 00:30:54;;;;;;;10.25;9.13;;;;;;;11.82;51.16;101960.03;5090249;28;20035;-65
2023/04/10 00:33:19;;;;;;;11.55;9.00;;;;;;;11.83;50.76;101957.09;5090553;28;20081;-64
2023/04/10 00:35:45;;;;;;;10.05;8.65;;;;;;;11.79;51.09;101955.81;5089093;28;20038;-64
2023/04/10 00:38:11;;;;;;;10.80;9.13;;;;;;;11.72;50.77;101957.84;5081243;28;20024;-65
2023/04/10 00:40:36;;;;;;;10.00;8.90;;;;;;;11.75;50.84;101958.22;5077182;28;20043;-65
2023/04/10 00:43:01;;;;;;;10.68;9.45;;;;;;;11.68;50.93;101951.03;5071933;28;20036;-64
2023/04/10 00:45:27;;;;;;;9.35;8.20;;;;;;;11.66;51.19;101944.84;5069881;28;20028;-64
2023/04/10 00:47:54;;;;;;;12.00;9.50;;;;;;;11.65;51.29;101945.94;5080864;28;20107;-64
2023/04/10 00:50:20;;;;;;;10.82;9.32;;;;;;;11.62;51.32;101941.69;5088690;28;20055;-64
2023/04/10 00:52:46;;;;;;;10.35;9.05;;;;;;;11.59;50.99;101944.09;5080183;28;20021;-64
2023/04/10 00:55:12;;;;;;;10.40;9.30;;;;;;;11.65;51.22;101940.38;5071144;28;20058;-64
2023/04/10 00:57:40;;;;;;;10.57;8.75;;;;;;;11.66;51.15;101939.28;5076217;28;20035;-65
2023/04/10 01:00:07;;;;;;;10.55;8.60;;;;;;;11.65;50.91;101943.16;5072883;28;20024;-65
2023/04/10 01:02:32;;;;;;;9.60;8.60;;;;;;;11.64;51.02;101938.69;5065276;28;20107;-64
2023/04/10 01:04:57;;;;;;;11.27;9.77;;;;;;;11.57;51.20;101940.69;5084670;28;20800;-65
2023/04/10 01:07:48;;;;;;;9.73;8.73;;;;;;;11.63;51.60;101931.41;5086038;28;20036;-65
2023/04/10 01:10:33;;;;;;;9.88;8.85;;;;;;;11.63;51.42;101945.31;5071963;28;20475;-64
2023/04/10 01:13:19;;;;;;;9.95;8.45;;;;;;;11.62;51.72;101938.06;5079243;28;20544;-65
2023/04/10 01:16:14;;;;;;;9.38;8.38;;;;;;;11.59;51.56;101931.03;5089462;28;20184;-65
2023/04/10 01:18:45;;;;;;;10.23;8.80;;;;;;;11.50;51.10;101924.94;5088537;28;20066;-64
2023/04/10 01:21:13;;;;;;;11.52;9.32;;;;;;;11.51;51.45;101920.22;5081560;28;20036;-65
2023/04/10 01:24:23;;;;;;;10.45;8.93;;;;;;;11.56;51.43;101920.41;5092636;28;20028;-65
2023/04/10 01:26:54;;;;;;;9.95;8.90;;;;;;;11.52;51.31;101921.94;5053684;28;20487;-65
2023/04/10 01:29:23;;;;;;;10.02;8.85;;;;;;;11.47;51.56;101917.06;5091390;28;20063;-66
2023/04/10 01:31:54;;;;;;;10.25;8.57;;;;;;;11.46;51.64;101920.94;5078267;28;20039;-65
2023/04/10 01:34:23;;;;;;;10.98;9.23;;;;;;;11.42;51.37;101922.47;5077481;28;20093;-65
2023/04/10 01:36:57;;;;;;;11.90;8.95;;;;;;;11.43;51.70;101924.16;5083694;28;20073;-65
2023/04/10 01:39:25;;;;;;;12.05;9.25;;;;;;;11.41;51.88;101920.78;5086473;28;20035;-65
2023/04/10 01:41:52;;;;;;;11.32;9.35;;;;;;;11.39;51.72;101920.16;5083346;28;20032;-65
2023/04/10 01:44:22;;;;;;;10.13;8.98;;;;;;;11.35;52.03;101909.75;5087004;28;20085;-65
2023/04/10 01:46:48;;;;;;;10.95;9.13;;;;;;;11.39;51.86;101909.03;5083880;28;20902;-65
2023/04/10 01:49:14;;;;;;;13.75;9.13;;;;;;;11.33;51.71;101896.09;5072513;28;20040;-65
2023/04/10 01:51:40;;;;;;;10.82;8.80;;;;;;;11.32;51.78;101905.50;5082244;28;20028;-65
2023/04/10 01:54:07;;;;;;;10.77;8.85;;;;;;;11.38;52.01;101899.00;5087695;28;20032;-65
2023/04/10 01:56:33;;;;;;;12.80;9.32;;;;;;;11.34;51.78;101897.78;5090697;28;20454;-64
2023/04/10 01:58:58;;;;;;;10.60;9.50;;;;;;;11.35;51.66;101891.13;5074768;28;20029;-65
2023/04/10 02:01:24;;;;;;;10.32;9.23;;;;;;;11.34;51.84;101885.81;5076309;28;20065;-64
2023/04/10 02:03:49;;;;;;;10.38;8.70;;;;;;;11.30;51.80;101879.88;5092002;28;20040;-64
2023/04/10 02:06:28;;;;;;;10.98;8.85;;;;;;;11.29;51.97;101884.59;5093690;28;20055;-64
2023/04/10 02:09:09;;;;;;;10.13;8.57;;;;;;;11.35;52.08;101870.81;5093296;28;20024;-64
2023/04/10 02:11:48;;;;;;;12.13;9.13;;;;;;;11.30;52.33;101866.81;5074296;28;20055;-64
2023/04/10 02:14:17;;;;;;;10.05;9.02;;;;;;;11.30;52.00;101861.25;5077216;28;20033;-64
2023/04/10 02:16:43;;;;;;;10.38;8.40;;;;;;;11.21;51.65;101859.88;5072127;28;20483;-64
2023/04/10 02:19:11;;;;;;;10.32;9.30;;;;;;;11.15;52.57;101863.59;5073881;28;20488;-64
2023/04/10 02:21:38;;;;;;;11.25;9.27;;;;;;;11.20;52.09;101865.66;5072663;28;20029;-64
2023/04/10 02:24:05;;;;;;;11.68;8.18;;;;;;;11.16;52.10;101856.09;5089036;28;20020;-65
2023/04/10 02:26:43;;;;;;;9.57;8.57;;;;;;;11.26;52.34;101853.63;5091309;28;20047;-64
2023/04/10 02:29:08;;;;;;;11.57;8.88;;;;;;;11.15;52.11;101854.41;5081244;28;20043;-64
2023/04/10 02:31:33;;;;;;;9.20;8.15;;;;;;;11.20;52.24;101855.41;5072487;28;20483;-65
2023/04/10 02:33:59;;;;;;;9.98;8.35;;;;;;;11.19;51.89;101850.06;5072682;28;20077;-65
2023/04/10 02:36:24;;;;;;;10.55;8.65;;;;;;;11.16;51.89;101856.09;5088542;28;20043;-64
2023/04/10 02:38:49;;;;;;;10.32;8.27;;;;;;;11.15;51.85;101846.91;5092897;28;20089;-64
2023/04/10 02:41:15;;;;;;;10.48;8.73;;;;;;;11.16;51.95;101847.75;5093040;28;20028;-64
2023/04/10 02:43:40;;;;;;;9.15;8.15;;;;;;;11.14;51.77;101848.00;5092633;28;20433;-64
2023/04/10 02:46:05;;;;;;;9.77;8.43;;;;;;;11.22;51.56;101849.63;5082235;28;20035;-64
2023/04/10 02:48:31;;;;;;;9.32;8.32;;;;;;;11.20;51.24;101854.53;5080499;28;20036;-65
2023/04/10 02:50:57;;;;;;;9.05;8.15;;;;;;;11.17;51.80;101863.38;5082811;28;20080;-65
2023/04/10 02:53:22;;;;;;;10.23;9.02;;;;;;;11.12;51.53;101858.50;5083127;28;20025;-65
2023/04/10 02:55:47;;;;;;;9.45;8.38;;;;;;;11.10;51.85;101854.25;5083354;28;20150;-65
2023/04/10 02:58:13;;;;;;;9.68;7.57;;;;;;;11.14;51.55;101853.56;5091873;28;20059;-65
2023/04/10 03:00:38;;;;;;;9.88;8.80;;;;;;;11.18;51.67;101851.16;5088956;28;20020;-65
2023/04/10 03:03:03;;;;;;;9.13;8.00;;;;;;;11.11;50.92;101840.13;5088273;28;20035;-65
2023/04/10 03:05:29;;;;;;;9.52;8.05;;;;;;;11.09;51.48;101852.56;5079962;28;20024;-65
2023/04/10 03:07:54;;;;;;;9.27;8.27;;;;;;;11.10;51.43;101845.94;5074083;28;20046;-64
2023/04/10 03:10:20;;;;;;;10.02;8.55;;;;;;;11.07;51.65;101845.28;5072597;28;20129;-64
2023/04/10 03:12:45;;;;;;;10.50;8.70;;;;;;;11.06;51.46;101851.09;5071167;28;20048;-65
2023/04/10 03:15:11;;;;;;;10.63;9.13;;;;;;;11.02;52.08;101852.63;5074183;28;20032;-64
2023/04/10 03:17:36;;;;;;;9.95;8.65;;;;;;;11.05;52.38;101855.81;5089576;28;20036;-64
2023/04/10 03:20:02;;;;;;;9.88;8.60;;;;;;;11.01;51.84;101860.13;5089209;28;20399;-65
2023/04/10 03:22:30;;;;;;;11.02;8.95;;;;;;;11.01;51.69;101859.28;5074340;28;20117;-64
2023/04/10 03:24:56;;;;;;;9.48;8.50;;;;;;;11.00;52.83;101863.13;5086726;28;20028;-64
2023/04/10 03:27:22;;;;;;;9.88;8.60;;;;;;;11.03;52.62;101865.44;5090475;28;20110;-64
2023/04/10 03:29:47;;;;;;;9.93;8.75;;;;;;;10.99;53.20;101853.94;5088898;28;20474;-64
2023/04/10 03:32:12;;;;;;;10.57;9.30;;;;;;;10.96;52.82;101859.94;5086126;28;20121;-64
2023/04/10 03:34:37;;;;;;;11.35;8.63;;;;;;;10.92;53.30;101850.38;5090698;28;20062;-64
2023/04/10 03:37:03;;;;;;;10.32;8.57;;;;;;;10.87;53.50;101844.69;5091759;28;20027;-64
2023/04/10 03:39:28;;;;;;;12.32;8.85;;;;;;;10.89;53.25;101848.09;5086321;28;20169;-64
2023/04/10 03:41:53;;;;;;;9.65;8.65;;;;;;;10.86;53.23;101834.66;5085932;28;20081;-65
2023/04/10 03:44:19;;;;;;;11.68;8.50;;;;;;;10.86;53.50;101834.66;5072143;28;20124;-64
2023/04/10 03:46:44;;;;;;;9.80;8.80;;;;;;;10.79;53.05;101833.88;5080067;28;20029;-64
2023/04/10 03:49:10;;;;;;;9.90;8.65;;;;;;;10.80;53.21;101830.00;5068335;28;20025;-64
2023/04/10 03:51:35;;;;;;;12.20;9.45;;;;;;;10.74;53.44;101830.97;5070246;28;20421;-64
2023/04/10 03:54:00;;;;;;;11.32;9.40;;;;;;;10.77;53.84;101828.56;5087612;28;20030;-64
2023/04/10 03:56:26;;;;;;;11.50;9.57;;;;;;;10.77;53.38;101834.13;5080423;28;20058;-63
2023/04/10 03:58:51;;;;;;;10.75;8.82;;;;;;;10.75;52.88;101830.72;5088030;28;20016;-64
2023/04/10 04:01:16;;;;;;;11.32;9.00;;;;;;;10.73;53.47;101829.25;5076293;28;20036;-64
2023/04/10 04:03:42;;;;;;;11.60;9.65;;;;;;;10.70;53.84;101821.38;5066135;28;20036;-64
2023/04/10 04:06:07;;;;;;;9.63;8.63;;;;;;;10.66;53.37;101817.38;5067425;28;20152;-64
2023/04/10 04:08:35;;;;;;;13.13;9.07;;;;;;;10.66;53.67;101815.44;5075877;28;20049;-64
2023/04/10 04:11:00;;;;;;;12.68;9.68;;;;;;;10.65;53.46;101818.44;5082407;28;20046;-63
2023/04/10 04:13:26;;;;;;;11.73;9.52;;;;;;;10.61;53.38;101809.75;5067608;28;20040;-63
2023/04/10 04:15:51;;;;;;;11.43;9.50;;;;;;;10.61;53.79;101804.19;5066838;28;20464;-63
2023/04/10 04:18:16;;;;;;;12.15;9.38;;;;;;;10.60;53.53;101805.25;5068814;28;20067;-64
2023/04/10 04:20:41;;;;;;;11.65;10.07;;;;;;;10.62;53.46;101802.25;5067016;28;20490;-64
2023/04/10 04:23:07;;;;;;;11.70;10.43;;;;;;;10.56;53.60;101806.78;5065655;28;20016;-63
2023/04/10 04:25:32;;;;;;;13.55;10.05;;;;;;;10.56;53.18;101807.63;5078839;28;20101;-63
2023/04/10 04:27:57;;;;;;;13.93;9.35;;;;;;;10.59;53.09;101802.72;5068217;28;20031;-63
2023/04/10 04:30:23;;;;;;;12.48;9.98;;;;;;;10.56;53.34;101796.53;5069217;28;20431;-63
2023/04/10 04:32:48;;;;;;;11.30;9.82;;;;;;;10.57;53.13;101801.03;5070686;28;20039;-63
2023/04/10 04:35:13;;;;;;;11.25;10.05;;;;;;;10.60;52.97;101802.47;5068406;28;20575;-64
2023/04/10 04:37:39;;;;;;;12.10;10.05;;;;;;;10.53;53.24;101796.13;5070454;28;20040;-64
2023/04/10 04:40:05;;;;;;;11.20;9.98;;;;;;;10.59;53.19;101794.38;5071626;28;20039;-64
2023/04/10 04:42:30;;;;;;;11.63;9.95;;;;;;;10.60;53.42;101791.38;5071088;28;20027;-64
2023/04/10 04:44:56;;;;;;;11.57;9.88;;;;;;;10.53;53.46;101793.34;5088169;28;20059;-64
2023/04/10 04:47:23;;;;;;;12.13;10.45;;;;;;;10.59;53.46;101788.84;5090604;28;20056;-63
2023/04/10 04:49:48;;;;;;;12.13;10.23;;;;;;;10.57;53.65;101789.03;5084634;28;20036;-64
2023/04/10 04:52:13;;;;;;;11.60;9.90;;;;;;;10.57;53.18;101780.72;5071896;28;20025;-64
2023/04/10 04:54:39;;;;;;;15.25;10.30;;;;;;;10.58;53.11;101788.00;5072077;28;20036;-64
2023/04/10 04:57:06;;;;;;;11.32;10.07;;;;;;;10.55;53.83;101783.72;5082010;28;20601;-64
2023/04/10 04:59:31;;;;;;;12.60;10.80;;;;;;;10.52;54.09;101783.34;5083739;28;20024;-64
2023/04/10 05:01:56;;;;;;;11.75;10.30;;;;;;;10.51;53.80;101788.06;5070676;28;20488;-64
2023/04/10 05:04:22;;;;;;;12.63;10.82;;;;;;;10.51;53.49;101781.66;5083952;28;20592;-64
2023/04/10 05:06:47;;;;;;;11.90;10.27;;;;;;;10.50;53.69;101789.13;5086354;28;20035;-64
2023/04/10 05:09:12;;;;;;;11.32;10.20;;;;;;;10.47;53.74;101778.50;5089833;28;20024;-64
2023/04/10 05:11:38;;;;;;;12.40;10.00;;;;;;;10.44;54.05;101775.31;5080028;28;20391;-64
2023/04/10 05:14:03;;;;;;;13.55;10.80;;;;;;;10.41;54.42;101771.06;5070090;28;20459;-64
2023/04/10 05:16:28;;;;;;;13.20;10.98;;;;;;;10.44;54.21;101764.22;5080650;28;20550;-64
2023/04/10 05:18:54;;;;;;;12.32;10.35;;;;;;;10.43;53.66;101757.81;5070161;28;20028;-64
2023/04/10 05:21:19;;;;;;;11.88;10.50;;;;;;;10.36;54.31;101751.50;5089869;28;20778;-64
2023/04/10 05:23:45;;;;;;;12.02;10.63;;;;;;;10.44;54.01;101761.44;5071089;28;20033;-65
2023/04/10 05:26:10;;;;;;;12.40;10.82;;;;;;;10.40;54.11;101758.28;5070206;28;20111;-65
2023/04/10 05:28:35;;;;;;;11.38;10.27;;;;;;;10.37;54.51;101755.09;5076688;28;20402;-64
2023/04/10 05:31:00;;;;;;;16.23;10.80;;;;;;;10.43;53.87;101755.03;5090500;28;20150;-64
2023/04/10 05:33:26;;;;;;;12.68;10.23;;;;;;;10.46;53.87;101756.53;5088706;28;20073;-64
2023/04/10 05:35:52;;;;;;;13.45;10.30;;;;;;;10.45;53.64;101763.13;5090430;28;20039;-64
2023/04/10 05:38:17;;;;;;;12.55;10.48;;;;;;;10.43;53.80;101763.38;5077010;28;20031;-64
2023/04/10 05:40:45;;;;;;;12.07;9.82;;;;;;;10.47;53.33;101764.59;5084337;28;20024;-64
2023/04/10 05:43:11;;;;;;;13.40;10.32;;;;;;;10.45;53.06;101757.56;5073804;28;20036;-64
2023/04/10 05:45:36;;;;;;;11.73;9.88;;;;;;;10.50;53.23;101766.94;5079121;28;20043;-64
2023/04/10 05:48:01;;;;;;;11.38;10.00;;;;;;;10.48;53.36;101759.91;5069577;28;20766;-64
2023/04/10 05:50:27;;;;;;;11.68;10.13;;;;;;;10.47;52.69;101756.28;5072978;28;20036;-64
2023/04/10 05:52:53;;;;;;;10.68;9.52;;;;;;;10.52;52.90;101767.53;5085026;28;20024;-63
2023/04/10 05:55:18;;;;;;;11.90;9.63;;;;;;;10.52;52.88;101766.69;5082972;28;20057;-63
2023/04/10 05:57:44;;;;;;;13.27;10.00;;;;;;;10.50;52.88;101775.25;5085126;28;20119;-64
2023/04/10 06:00:10;;;;;;;12.48;10.02;;;;;;;10.46;53.05;101774.03;5086262;28;20368;-64
2023/04/10 06:02:35;;;;;;;10.65;9.55;;;;;;;10.45;52.90;101761.22;5081023;28;20021;-64
2023/04/10 06:05:00;;;;;;;10.40;9.30;;;;;;;10.50;52.49;101766.94;5072533;28;20040;-64
2023/04/10 06:07:26;;;;;;;12.38;10.40;;;;;;;10.52;52.93;101778.63;5086533;28;20032;-63
2023/04/10 06:09:51;;;;;;;11.68;10.07;;;;;;;10.55;52.52;101772.63;5093154;28;20679;-64
2023/04/10 06:12:16;;;;;;;10.43;9.30;;;;;;;10.61;52.49;101767.22;5075619;28;20048;-64
2023/04/10 06:14:42;;;;;;;10.98;9.48;;;;;;;10.57;52.60;101767.72;5076452;28;20029;-64
2023/04/10 06:17:07;;;;;;;10.57;9.18;;;;;;;10.63;52.17;101762.31;5079695;28;20030;-64
2023/04/10 06:19:32;;;;;;;11.43;9.52;;;;;;;10.59;52.34;101761.06;5072845;28;20435;-64
2023/04/10 06:21:57;;;;;;;9.68;8.63;;;;;;;10.65;52.46;101768.47;5091969;28;20024;-64
2023/04/10 06:24:23;;;;;;;13.45;9.98;;;;;;;10.63;51.87;101757.59;5085230;28;20029;-64
2023/04/10 06:26:48;;;;;;;10.35;8.93;;;;;;;10.65;52.06;101755.44;5073363;28;20060;-63
2023/04/10 06:29:14;;;;;;;11.35;9.07;;;;;;;10.68;51.68;101743.84;5078547;28;20475;-63
2023/04/10 06:31:39;;;;;;;10.27;9.20;;;;;;;10.69;51.63;101734.47;5080361;28;20027;-64
2023/04/10 06:34:05;;;;;;;11.07;9.88;;;;;;;10.73;51.52;101732.06;5092245;28;20028;-63
2023/04/10 06:36:30;;;;;;;10.27;8.77;;;;;;;10.74;51.28;101734.63;5092467;28;20034;-63
2023/04/10 06:38:55;;;;;;;10.82;9.30;;;;;;;10.75;51.30;101732.69;5090816;28;20036;-63
2023/04/10 06:41:20;;;;;;;11.20;8.63;;;;;;;10.77;51.11;101722.19;5091215;28;20022;-63
2023/04/10 06:43:46;;;;;;;10.07;8.98;;;;;;;10.77;50.84;101724.97;5088822;28;20483;-63
2023/04/10 06:46:12;;;;;;;10.45;9.20;;;;;;;10.78;51.20;101726.66;5074667;28;20035;-64
2023/04/10 06:48:37;;;;;;;11.70;9.30;;;;;;;10.75;50.85;101718.78;5059783;28;20524;-64
2023/04/10 06:51:03;;;;;;;11.55;9.20;;;;;;;10.76;50.80;101713.00;5070969;28;20406;-64
2023/04/10 06:53:29;;;;;;;10.30;8.90;;;;;;;10.78;51.20;101704.44;5082183;28;20028;-64
2023/04/10 06:55:54;;;;;;;10.75;9.02;;;;;;;10.79;50.81;101708.91;5071609;28;20036;-64
2023/04/10 06:58:20;;;;;;;10.60;9.00;;;;;;;10.83;50.87;101701.81;5073190;28;20111;-64
2023/04/10 07:00:45;;;;;;;10.73;9.05;;;;;;;10.83;50.58;101696.25;5081801;28;20375;-64
2023/04/10 07:03:10;;;;;;;10.65;9.07;;;;;;;10.81;50.44;101696.50;5078421;28;20034;-64
2023/04/10 07:05:36;;;;;;;11.10;8.85;;;;;;;10.86;50.64;101681.06;5072148;28;20029;-64
2023/04/10 07:08:01;;;;;;;11.02;9.05;;;;;;;10.86;50.25;101692.16;5082212;28;20024;-63
2023/04/10 07:10:26;;;;;;;10.63;9.13;;;;;;;10.90;50.46;101679.50;5074589;28;20024;-62
2023/04/10 07:12:52;;;;;;;11.13;9.35;;;;;;;10.90;50.36;101674.81;5079561;28;20078;-61
2023/04/10 07:15:17;;;;;;;10.85;9.23;;;;;;;10.91;50.38;101670.94;5081365;28;20031;-63
2023/04/10 07:17:42;;;;;;;10.43;9.23;;;;;;;10.92;50.71;101671.78;5080505;28;20777;-65
2023/04/10 07:20:08;;;;;;;11.05;9.10;;;;;;;10.98;50.77;101670.84;5083723;28;20039;-63
2023/04/10 07:22:33;;;;;;;12.32;8.93;;;;;;;10.98;50.82;101666.13;5088481;28;20036;-61
2023/04/10 07:24:59;;;;;;;9.73;8.57;;;;;;;10.98;49.91;101657.81;5078943;28;20017;-62
2023/04/10 07:27:24;;;;;;;10.73;9.45;;;;;;;10.96;50.40;101657.16;5070582;28;20706;-62
2023/04/10 07:29:53;;;;;;;9.45;8.45;;;;;;;10.97;50.69;101647.78;5074041;28;20024;-63
2023/04/10 07:32:18;;;;;;;9.48;8.45;;;;;;;10.99;50.37;101651.16;5080231;28;20107;-63
2023/04/10 07:34:44;;;;;;;9.27;8.30;;;;;;;11.00;50.38;101654.78;5091816;28;20447;-63
2023/04/10 07:37:09;;;;;;;10.20;8.90;;;;;;;11.00;50.06;101644.53;5090177;28;20047;-63
2023/04/10 07:39:34;;;;;;;10.35;8.95;;;;;;;10.99;50.39;101642.81;5089625;28;20497;-64
2023/04/10 07:42:00;;;;;;;9.98;8.57;;;;;;;11.04;50.11;101637.41;5078608;28;20036;-63
2023/04/10 07:44:25;;;;;;;8.95;8.02;;;;;;;11.15;52.06;101637.66;5078758;28;20031;-61
2023/04/10 07:46:51;;;;;;;9.98;8.23;;;;;;;11.21;50.17;101632.03;5069183;28;20036;-63
2023/04/10 07:49:16;;;;;;;11.32;8.93;;;;;;;11.31;50.07;101620.28;5079089;28;20028;-65
2023/04/10 07:51:41;;;;;;;10.80;8.77;;;;;;;11.40;50.08;101613.31;5078409;28;20036;-64
2023/04/10 07:54:07;;;;;;;12.13;8.40;;;;;;;11.49;50.01;101606.31;5072494;28;20024;-63
2023/04/10 07:56:32;;;;;;;9.48;8.13;;;;;;;11.60;49.77;101612.13;5073305;28;20126;-65
2023/04/10 07:59:01;;;;;;;10.50;8.40;;;;;;;11.62;48.99;101608.00;5076461;28;20055;-65
2023/04/10 08:01:27;;;;;;;8.40;7.60;;;;;;;11.74;49.17;101602.44;5074283;28;20084;-65
2023/04/10 08:03:54;;;;;;;9.20;8.00;;;;;;;11.82;49.07;101607.63;5087749;28;20111;-65
2023/04/10 08:06:19;;;;;;;9.25;7.95;;;;;;;11.88;49.61;101589.16;5070336;28;20042;-65
2023/04/10 08:08:44;;;;;;;9.02;7.85;;;;;;;11.94;48.86;101590.94;5069725;28;20507;-64
2023/04/10 08:11:30;;;;;;;10.35;8.40;;;;;;;11.95;49.26;101593.50;5070397;28;20055;-65
2023/04/10 08:14:04;;;;;;;9.30;8.38;;;;;;;11.97;48.97;101593.25;5087782;28;20032;-65
2023/04/10 08:16:31;;;;;;;9.85;8.15;;;;;;;11.93;48.90;101594.84;5070495;28;20032;-65
2023/04/10 08:18:58;;;;;;;9.35;8.35;;;;;;;11.92;48.70;101594.00;5069687;28;20548;-65
2023/04/10 08:21:25;;;;;;;9.95;8.18;;;;;;;11.89;49.50;101600.03;5070152;28;20131;-65
2023/04/10 08:23:56;;;;;;;8.27;7.47;;;;;;;11.90;49.50;101581.41;5079022;28;20086;-64
2023/04/10 08:26:21;;;;;;;9.57;8.63;;;;;;;11.88;49.49;101575.25;5085409;28;20104;-65
2023/04/10 08:28:49;;;;;;;9.43;8.27;;;;;;;11.88;49.23;101586.38;5086959;28;20111;-65
2023/04/10 08:31:18;;;;;;;10.05;8.50;;;;;;;11.88;49.61;101581.66;5082289;28;20032;-65
2023/04/10 08:33:43;;;;;;;10.65;8.55;;;;;;;11.90;49.98;101579.47;5081112;28;20028;-60
2023/04/10 08:36:09;;;;;;;9.23;7.93;;;;;;;11.93;49.97;101578.97;5071044;28;20077;-61
2023/04/10 08:38:34;;;;;;;9.40;7.90;;;;;;;11.99;50.34;101580.81;5082403;28;20077;-60
2023/04/10 08:41:00;;;;;;;9.27;7.90;;;;;;;12.06;49.64;101571.47;5070536;28;20127;-60
2023/04/10 08:43:26;;;;;;;8.45;7.63;;;;;;;12.11;50.01;101569.66;5069090;28;20029;-60
2023/04/10 08:45:52;;;;;;;9.13;7.65;;;;;;;12.13;49.75;101556.31;5090466;28;20399;-60
2023/04/10 08:48:21;;;;;;;8.82;7.93;;;;;;;12.17;49.92;101560.28;5081501;28;20060;-60
2023/04/10 08:50:48;;;;;;;8.57;7.65;;;;;;;12.19;50.23;101562.84;5069830;28;20429;-60
2023/04/10 08:53:15;;;;;;;9.80;7.93;;;;;;;12.20;49.72;101570.09;5070178;28;20094;-60
2023/04/10 08:55:41;;;;;;;10.18;8.02;;;;;;;12.20;49.99;101565.38;5070484;28;20101;-60
2023/04/10 08:58:07;;;;;;;9.50;8.18;;;;;;;12.21;49.99;101558.72;5069010;28;20468;-60
2023/04/10 09:00:34;;;;;;;8.00;7.13;;;;;;;12.25;49.85;101564.63;5080346;28;20023;-65
2023/04/10 09:03:03;;;;;;;9.25;8.35;;;;;;;12.26;49.78;101563.53;5089243;28;20304;-62
2023/04/10 09:05:29;;;;;;;8.75;7.50;;;;;;;12.27;49.80;101568.03;5080365;28;20028;-61
2023/04/10 09:07:55;;;;;;;8.88;7.82;;;;;;;12.32;50.41;101553.34;5090618;28;20048;-62
2023/04/10 09:10:20;;;;;;;9.75;7.70;;;;;;;12.37;50.52;101550.66;5071342;28;20052;-61
2023/04/10 09:12:47;;;;;;;8.85;7.95;;;;;;;12.41;50.31;101544.34;5051354;28;20348;-63
2023/04/10 09:15:13;;;;;;;8.32;7.53;;;;;;;12.42;49.67;101546.06;5049259;28;20119;-64
2023/04/10 09:17:56;;;;;;;9.32;8.32;;;;;;;12.46;50.09;101538.91;5060061;28;20032;-63
2023/04/10 09:20:22;;;;;;;;;;;;;;;12.53;50.25;101539.56;5069821;28;20135;-62
2023/04/10 09:22:47;;;;;;;9.55;8.00;;;;;;;12.51;49.96;101539.00;5069462;28;19920;-62
2023/04/10 09:25:30;;;;;;;8.98;7.60;;;;;;;12.58;50.52;101538.84;5050391;28;20025;-63
2023/04/10 09:28:05;;;;;;;9.90;8.10;;;;;;;12.62;50.71;101531.69;5049360;28;20087;-63
2023/04/10 09:30:38;;;;;;;9.00;8.10;;;;;;;12.65;50.50;101525.59;5050046;28;20040;-63
2023/04/10 09:33:29;;;;;;;8.90;8.00;;;;;;;12.68;50.77;101513.94;5051751;28;20029;-63
2023/04/10 09:35:57;;;;;;;9.30;8.40;;;;;;;12.66;49.92;101512.53;5064870;28;20032;-62
2023/04/10 09:38:22;;;;;;;10.55;7.97;;;;;;;12.67;50.01;101506.69;5054528;28;20028;-58
2023/04/10 09:40:48;;;;;;;11.43;7.53;;;;;;;12.71;50.75;101504.25;5062234;28;20027;-62
2023/04/10 09:43:24;;;;;;;8.02;7.22;;;;;;;12.71;50.35;101498.69;5051301;28;20438;-61
2023/04/10 09:45:53;;;;;;;8.23;7.20;;;;;;;12.69;50.24;101487.81;5051939;28;20033;-63
2023/04/10 09:48:19;;;;;;;8.40;7.50;;;;;;;12.71;50.59;101481.97;5060520;28;20033;-62
2023/04/10 09:50:45;;;;;;;8.20;7.38;;;;;;;12.73;50.81;101479.75;5060826;28;20050;-64
2023/04/10 09:53:15;;;;;;;9.40;7.47;;;;;;;12.74;50.67;101481.47;5050085;28;20468;-63
2023/04/10 09:55:42;;;;;;;8.50;7.45;;;;;;;12.76;50.26;101477.31;5066280;28;20044;-64
2023/04/10 09:58:08;;;;;;;8.27;7.40;;;;;;;12.78;50.74;101472.34;5066897;28;20021;-64
2023/04/10 10:00:47;;;;;;;8.57;7.30;;;;;;;12.82;50.67;101469.91;5058309;28;20032;-64
2023/04/10 10:03:14;;;;;;;9.70;7.45;;;;;;;12.85;50.43;101475.00;5059981;28;20025;-64
2023/04/10 10:05:42;;;;;;;9.52;7.22;;;;;;;12.88;49.98;101463.31;5062784;28;20037;-64
2023/04/10 10:08:10;;;;;;;8.45;6.85;;;;;;;12.93;50.36;101459.75;5062644;28;20099;-64
2023/04/10 10:10:45;;;;;;;7.93;7.13;;;;;;;12.98;50.20;101466.28;5057430;28;20040;-64
2023/04/10 10:13:18;;;;;;;7.70;6.55;;;;;;;13.05;50.21;101473.59;5076650;28;20067;-63
2023/04/10 10:15:59;;;;;;;8.60;7.35;;;;;;;13.11;50.33;101456.72;5082189;28;20028;-63
2023/04/10 10:18:37;;;;;;;8.10;6.78;;;;;;;13.17;50.83;101438.13;5075068;28;20102;-64
2023/04/10 10:21:03;;;;;;;8.55;6.72;;;;;;;13.23;50.41;101434.34;5089363;28;20036;-65
2023/04/10 10:23:32;;;;;;;8.13;6.40;;;;;;;13.31;50.22;101445.06;5082649;28;20471;-65
2023/04/10 10:25:59;;;;;;;7.05;6.38;;;;;;;13.37;49.65;101432.03;5072294;28;20108;-64
2023/04/10 10:28:26;;;;;;;8.15;6.15;;;;;;;13.48;50.08;101429.13;5090586;28;20485;-66
2023/04/10 10:30:53;;;;;;;6.68;5.97;;;;;;;13.62;50.01;101428.75;5080844;28;20028;-64
2023/04/10 10:33:19;;;;;;;6.88;5.88;;;;;;;13.76;49.07;101435.63;5071861;28;20105;-61
2023/04/10 10:35:45;;;;;;;6.22;5.68;;;;;;;13.83;49.72;101418.66;5072206;28;20040;-63
2023/04/10 10:38:11;;;;;;;6.90;6.18;;;;;;;13.86;48.80;101418.97;5074615;28;20046;-68
2023/04/10 10:40:36;;;;;;;7.13;6.00;;;;;;;13.94;48.85;101417.69;5071500;28;20048;-69
2023/04/10 10:43:16;;;;;;;7.13;5.57;;;;;;;13.98;48.80;101419.69;5071064;28;20094;-70
2023/04/10 10:45:55;;;;;;;5.90;5.35;;;;;;;13.99;48.71;101401.84;5076117;28;20353;-67
2023/04/10 10:48:20;;;;;;;6.32;5.47;;;;;;;14.04;48.39;101391.84;5077649;28;20036;-67
2023/04/10 10:50:57;;;;;;;8.40;5.07;;;;;;;14.06;48.19;101393.25;5077134;28;20081;-67
2023/04/10 10:53:34;;;;;;;6.40;5.13;;;;;;;14.08;47.87;101384.63;5086525;28;20059;-73
2023/04/10 10:56:33;;;;;;;5.63;5.13;;;;;;;14.11;48.69;101382.16;5077704;28;20055;-68
2023/04/10 10:59:00;;;;;;;5.88;5.28;;;;;;;14.14;47.40;101376.00;5038160;28;20032;-70
2023/04/10 11:01:26;;;;;;;6.97;5.57;;;;;;;14.16;47.23;101384.16;5077223;28;20028;-72
2023/04/10 11:03:52;;;;;;;8.77;4.85;;;;;;;14.19;47.80;101367.72;5074959;28;20036;-69
2023/04/10 11:06:19;;;;;;;6.05;5.38;;;;;;;14.29;47.53;101369.75;5077682;28;20029;-65
2023/04/10 11:08:45;;;;;;;7.20;4.97;;;;;;;14.38;47.67;101365.38;5071035;28;20363;-70
2023/04/10 11:11:24;;;;;;;5.32;4.82;;;;;;;14.49;47.55;101369.09;5075675;28;20068;-68
2023/04/10 11:13:54;;;;;;;5.47;4.97;;;;;;;14.59;47.59;101362.78;5082359;28;20479;-71
2023/04/10 11:16:21;;;;;;;5.93;4.88;;;;;;;14.70;47.13;101353.34;5073352;28;20075;-65
2023/04/10 11:18:46;;;;;;;5.18;4.78;;;;;;;14.79;46.86;101354.53;5074936;28;20024;-64
2023/04/10 11:21:13;;;;;;;4.85;4.35;;;;;;;14.87;46.94;101345.63;5082267;28;20081;-72